createdAt,value
2023-02-14T00:00:05.853Z,102431.50
2023-02-14T00:05:09.976Z,102433.84
2023-02-14T00:10:11.642Z,102429.38
2023-02-14T00:15:25.491Z,102420.53
2023-02-14T00:20:28.304Z,102425.75
2023-02-14T00:25:29.900Z,102429.44
2023-02-14T00:30:31.673Z,102421.53
2023-02-14T00:35:33.391Z,102417.13
2023-02-14T00:40:35.012Z,102422.28
2023-02-14T00:45:36.695Z,102428.44
2023-02-14T00:50:38.339Z,102422.84
2023-02-14T00:55:40.203Z,102414.19
2023-02-14T01:00:43.188Z,102403.53
2023-02-14T01:05:44.867Z,102403.59
2023-02-14T01:10:46.986Z,102408.28
2023-02-14T01:15:51.238Z,102410.09
2023-02-14T01:20:52.837Z,102401.06
2023-02-14T01:25:54.583Z,102404.53
2023-02-14T01:30:56.206Z,102393.75
2023-02-14T01:35:58.445Z,102391.78
2023-02-14T01:41:00.381Z,102383.78
2023-02-14T01:46:02.237Z,102394.63
2023-02-14T01:51:03.997Z,102381.19
2023-02-14T01:56:08.766Z,102379.25
2023-02-14T02:01:13.542Z,102393.56
2023-02-14T02:06:18.110Z,102390.09
2023-02-14T02:11:19.753Z,102374.63
2023-02-14T02:16:33.585Z,102381.88
2023-02-14T02:22:22.789Z,102373.03
2023-02-14T02:27:26.418Z,102375.72
2023-02-14T02:32:57.619Z,102377.25
2023-02-14T02:38:27.141Z,102373.63
2023-02-14T02:43:46.609Z,102364.00
2023-02-14T02:49:02.407Z,102374.03
2023-02-14T02:54:10.077Z,102376.78
2023-02-14T02:59:20.908Z,102364.00
2023-02-14T03:04:47.187Z,102358.31
2023-02-14T03:09:51.336Z,102357.56
2023-02-14T03:15:07.044Z,102354.97
2023-02-14T03:20:21.362Z,102366.53
2023-02-14T03:25:25.873Z,102364.88
2023-02-14T03:30:50.659Z,102367.34
2023-02-14T03:36:17.570Z,102357.50
2023-02-14T03:41:22.639Z,102357.44
2023-02-14T03:46:28.781Z,102352.06
2023-02-14T03:51:34.421Z,102348.59
2023-02-14T03:56:57.822Z,102355.75
2023-02-14T04:02:11.209Z,102354.88
2023-02-14T04:07:20.461Z,102360.38
2023-02-14T04:12:36.852Z,102366.66
2023-02-14T04:17:58.082Z,102362.25
2023-02-14T04:23:01.310Z,102361.31
2023-02-14T04:28:04.027Z,102358.44
2023-02-14T04:33:07.954Z,102351.28
2023-02-14T04:38:09.553Z,102336.22
2023-02-14T04:43:11.213Z,102341.72
2023-02-14T04:48:12.835Z,102344.72
2023-02-14T04:53:14.496Z,102340.38
2023-02-14T04:58:18.073Z,102327.19
2023-02-14T05:03:19.685Z,102333.50
2023-02-14T05:08:21.269Z,102329.94
2023-02-14T05:13:23.404Z,102329.00
2023-02-14T05:18:26.114Z,102336.09
2023-02-14T05:23:27.748Z,102328.00
2023-02-14T05:28:29.937Z,102329.69
2023-02-14T05:33:31.544Z,102319.69
2023-02-14T05:38:34.859Z,102326.94
2023-02-14T05:43:36.535Z,102325.31
2023-02-14T05:48:38.189Z,102326.47
2023-02-14T05:53:39.894Z,102320.19
2023-02-14T05:58:41.637Z,102316.78
2023-02-14T06:03:43.279Z,102314.84
2023-02-14T06:08:44.965Z,102318.03
2023-02-14T06:13:46.619Z,102321.72
2023-02-14T06:18:48.311Z,102323.59
2023-02-14T06:23:50.028Z,102317.97
2023-02-14T06:28:55.676Z,102324.38
2023-02-14T06:33:57.509Z,102335.63
2023-02-14T06:38:59.116Z,102331.34
2023-02-14T06:44:00.812Z,102337.31
2023-02-14T06:49:02.478Z,102345.47
2023-02-14T06:54:04.262Z,102345.28
2023-02-14T06:59:06.384Z,102340.44
2023-02-14T07:04:08.090Z,102338.31
2023-02-14T07:09:09.773Z,102336.16
2023-02-14T07:14:12.107Z,102332.66
2023-02-14T07:19:13.885Z,102325.22
2023-02-14T07:24:15.627Z,102334.00
2023-02-14T07:29:17.361Z,102328.91
2023-02-14T07:34:18.985Z,102326.38
2023-02-14T07:39:20.604Z,102329.44
2023-02-14T07:44:22.600Z,102326.84
2023-02-14T07:49:24.229Z,102325.81
2023-02-14T07:54:25.863Z,102324.91
2023-02-14T07:59:27.484Z,102327.88
2023-02-14T08:04:29.269Z,102324.53
2023-02-14T08:09:30.938Z,102329.41
2023-02-14T08:14:32.692Z,102329.19
2023-02-14T08:19:34.498Z,102329.13
2023-02-14T08:24:36.125Z,102329.78
2023-02-14T08:29:37.830Z,102334.13
2023-02-14T08:34:39.456Z,102343.44
2023-02-14T08:39:41.088Z,102337.63
2023-02-14T08:44:42.898Z,102346.19
2023-02-14T08:49:44.542Z,102342.03
2023-02-14T08:54:46.192Z,102338.91
2023-02-14T08:59:48.519Z,102341.81
2023-02-14T09:04:50.230Z,102336.31
2023-02-14T09:09:51.873Z,102338.25
2023-02-14T09:14:53.546Z,102338.25
2023-02-14T09:19:55.145Z,102354.59
2023-02-14T09:24:56.892Z,102350.59
2023-02-14T09:29:58.696Z,102350.59
2023-02-14T09:35:00.485Z,102340.59
2023-02-14T09:40:02.341Z,102351.22
2023-02-14T09:45:12.936Z,102351.16
2023-02-14T09:50:22.777Z,102355.75
2023-02-14T09:55:27.817Z,102354.38
2023-02-14T10:00:35.890Z,102359.28
2023-02-14T10:06:02.453Z,102355.88
2023-02-14T10:11:06.929Z,102357.28
2023-02-14T10:16:22.151Z,102354.31
2023-02-14T10:21:47.896Z,102347.00
2023-02-14T10:26:50.883Z,102339.53
2023-02-14T10:31:58.427Z,102344.31
2023-02-14T10:37:44.729Z,102340.41
2023-02-14T10:43:01.531Z,102342.41
2023-02-14T10:48:09.745Z,102339.75
2023-02-14T10:53:36.438Z,102339.03
2023-02-14T10:58:39.426Z,102336.88
2023-02-14T11:03:51.731Z,102338.94
2023-02-14T11:08:55.548Z,102334.53
2023-02-14T11:13:58.030Z,102331.50
2023-02-14T11:19:14.866Z,102321.44
2023-02-14T11:24:37.390Z,102318.81
2023-02-14T11:29:38.924Z,102316.94
2023-02-14T11:35:02.115Z,102306.66
2023-02-14T11:40:05.281Z,102304.81
2023-02-14T11:45:07.593Z,102305.44
2023-02-14T11:50:24.747Z,102301.34
2023-02-14T11:55:29.643Z,102302.03
2023-02-14T12:00:31.787Z,102297.47
2023-02-14T12:05:45.156Z,102289.03
2023-02-14T12:11:04.791Z,102281.28
2023-02-14T12:16:21.770Z,102274.38
2023-02-14T12:21:57.204Z,102277.00
2023-02-14T12:27:28.425Z,102263.41
2023-02-14T12:32:31.532Z,102265.94
2023-02-14T12:38:12.034Z,102247.31
2023-02-14T12:43:23.305Z,102241.94
2023-02-14T12:48:47.168Z,102237.81
2023-02-14T12:54:08.989Z,102234.63
2023-02-14T12:59:22.106Z,102226.22
2023-02-14T13:04:26.832Z,102223.28
2023-02-14T13:09:51.420Z,102223.03
2023-02-14T13:15:15.540Z,102212.06
2023-02-14T13:20:52.490Z,102210.72
2023-02-14T13:26:24.991Z,102210.53
2023-02-14T13:31:27.456Z,102202.72
2023-02-14T13:36:29.698Z,102197.03
2023-02-14T13:41:31.651Z,102182.59
2023-02-14T13:46:33.257Z,102187.94
2023-02-14T13:52:03.827Z,102175.00
2023-02-14T13:57:36.652Z,102179.75
2023-02-14T14:02:50.036Z,102174.16
2023-02-14T14:08:20.350Z,102177.84
2023-02-14T14:13:39.944Z,102175.81
2023-02-14T14:18:43.169Z,102160.81
2023-02-14T14:23:44.884Z,102161.44
2023-02-14T14:28:46.646Z,102157.50
2023-02-14T14:33:58.771Z,102156.88
2023-02-14T14:39:00.474Z,102156.19
2023-02-14T14:44:03.024Z,102142.84
2023-02-14T14:49:09.522Z,102140.38
2023-02-14T14:54:17.347Z,102125.41
2023-02-14T14:59:22.484Z,102120.28
2023-02-14T15:04:28.330Z,102112.16
2023-02-14T15:09:32.185Z,102109.06
2023-02-14T15:14:36.327Z,102110.97
2023-02-14T15:19:43.436Z,102101.50
2023-02-14T15:24:45.482Z,102095.22
2023-02-14T15:29:58.565Z,102094.19
2023-02-14T15:35:01.208Z,102082.19
2023-02-14T15:40:03.344Z,102081.94
2023-02-14T15:45:15.346Z,102077.13
2023-02-14T15:50:19.651Z,102076.66
2023-02-14T15:55:23.191Z,102078.84
2023-02-14T16:00:25.545Z,102076.56
2023-02-14T16:05:27.497Z,102079.59
2023-02-14T16:10:32.075Z,102085.53
2023-02-14T16:15:35.784Z,102083.31
2023-02-14T16:20:43.379Z,102076.59
2023-02-14T16:25:45.603Z,102081.38
2023-02-14T16:30:52.541Z,102077.13
2023-02-14T16:35:54.894Z,102082.38
2023-02-14T16:40:56.581Z,102081.88
2023-02-14T16:45:58.259Z,102072.47
2023-02-14T16:51:00.123Z,102082.50
2023-02-14T16:56:01.984Z,102081.91
2023-02-14T17:01:04.096Z,102077.78
2023-02-14T17:06:08.124Z,102069.22
2023-02-14T17:11:09.852Z,102071.00
2023-02-14T17:16:15.413Z,102067.44
2023-02-14T17:21:20.456Z,102066.66
2023-02-14T17:26:22.796Z,102061.31
2023-02-14T17:31:24.795Z,102060.66
2023-02-14T17:36:27.844Z,102054.66
2023-02-14T17:41:29.563Z,102045.50
2023-02-14T17:46:32.307Z,102057.06
2023-02-14T17:51:34.052Z,102044.44
2023-02-14T17:56:35.820Z,102040.41
2023-02-14T18:01:37.486Z,102043.28
2023-02-14T18:06:40.307Z,102037.47
2023-02-14T18:11:42.263Z,102043.19
2023-02-14T18:16:44.732Z,102036.38
2023-02-14T18:21:46.430Z,102034.16
2023-02-14T18:26:48.234Z,102034.66
2023-02-14T18:31:50.046Z,102034.09
2023-02-14T18:36:51.788Z,102028.28
2023-02-14T18:41:53.461Z,102028.47
2023-02-14T18:46:55.380Z,102021.59
2023-02-14T18:51:58.808Z,102013.97
2023-02-14T18:57:00.491Z,102014.28
2023-02-14T19:02:02.237Z,102007.34
2023-02-14T19:07:04.503Z,101995.31
2023-02-14T19:12:07.020Z,101992.03
2023-02-14T19:17:08.729Z,101989.63
2023-02-14T19:22:11.024Z,101994.38
2023-02-14T19:27:12.718Z,101995.66
2023-02-14T19:32:14.452Z,101987.03
2023-02-14T19:37:16.141Z,101983.81
2023-02-14T19:42:17.800Z,101981.28
2023-02-14T19:47:31.288Z,101983.34
2023-02-14T19:52:41.432Z,101982.59
2023-02-14T19:57:43.520Z,101977.44
2023-02-14T20:02:48.213Z,101995.16
2023-02-14T20:07:51.898Z,101975.84
2023-02-14T20:12:53.581Z,101974.22
2023-02-14T20:17:55.577Z,101977.78
2023-02-14T20:22:57.214Z,101963.84
2023-02-14T20:27:58.800Z,101957.88
2023-02-14T20:33:00.694Z,101964.22
2023-02-14T20:38:02.815Z,101964.44
2023-02-14T20:43:04.569Z,101959.97
2023-02-14T20:48:08.538Z,101968.13
2023-02-14T20:53:10.298Z,101953.25
2023-02-14T20:58:12.222Z,101949.84
2023-02-14T21:03:13.855Z,101944.63
2023-02-14T21:08:16.324Z,101953.34
2023-02-14T21:13:18.012Z,101952.31
2023-02-14T21:18:19.607Z,101955.09
2023-02-14T21:23:21.212Z,101950.69
2023-02-14T21:28:22.841Z,101948.97
2023-02-14T21:33:25.383Z,101944.69
2023-02-14T21:38:27.993Z,101935.94
2023-02-14T21:43:29.621Z,101928.19
2023-02-14T21:48:50.293Z,101929.22
2023-02-14T21:53:52.508Z,101926.81
2023-02-14T21:58:55.622Z,101920.69
2023-02-14T22:03:58.908Z,101911.97
2023-02-14T22:09:00.655Z,101915.56
2023-02-14T22:14:02.912Z,101905.09
2023-02-14T22:19:06.009Z,101900.78
2023-02-14T22:24:07.812Z,101899.88
2023-02-14T22:29:11.441Z,101899.81
2023-02-14T22:34:17.662Z,101897.22
2023-02-14T22:39:19.470Z,101893.03
2023-02-14T22:44:21.092Z,101899.28
2023-02-14T22:49:22.898Z,101893.97
2023-02-14T22:54:24.548Z,101895.84
2023-02-14T22:59:32.083Z,101886.94
2023-02-14T23:04:33.694Z,101884.28
2023-02-14T23:09:35.359Z,101887.13
2023-02-14T23:14:55.620Z,101876.44
2023-02-14T23:20:15.635Z,101878.38
2023-02-14T23:25:17.311Z,101877.63
2023-02-14T23:30:19.271Z,101877.47
2023-02-14T23:35:20.906Z,101865.91
2023-02-14T23:40:22.561Z,101865.31
2023-02-14T23:45:36.104Z,101860.81
2023-02-14T23:50:38.295Z,101855.50
2023-02-14T23:55:39.913Z,101852.84
